Time;durP1;ratioP1;P1;durP2;ratioP2;P2;SDS_P1;SDS_P2;PMS_P1;PMS_P2;Temp;Humidity;BMP_temperature;BMP_pressure;BME280_temperature;BME280_humidity;BME280_pressure;Samples;Min_cycle;Max_cycle;Signal;HPM_P1;HPM_P2
2023/01/15 00:00:13;;;;;;;2.90;1.00;;;;;;;7.67;100.00;99443.59;5023540;28;20610;-73
2023/01/15 00:02:38;;;;;;;3.13;0.97;;;;;;;7.61;100.00;99455.41;5020527;28;20249;-72
2023/01/15 00:05:05;;;;;;;1.43;0.63;;;;;;;7.60;100.00;99461.34;5023422;28;20206;-72
2023/01/15 00:07:30;;;;;;;3.20;0.70;;;;;;;7.56;100.00;99472.34;5024886;28;20655;-72
2023/01/15 00:09:56;;;;;;;3.10;0.63;;;;;;;7.50;100.00;99483.31;5022892;28;20197;-72
2023/01/15 00:12:21;;;;;;;1.33;0.73;;;;;;;7.44;100.00;99478.19;5024843;28;20202;-72
2023/01/15 00:14:47;;;;;;;4.70;1.07;;;;;;;7.40;100.00;99473.91;5029577;28;20243;-71
2023/01/15 00:17:13;;;;;;;2.23;1.30;;;;;;;7.34;100.00;99475.53;5023015;28;20252;-72
2023/01/15 00:19:38;;;;;;;3.33;1.17;;;;;;;7.31;100.00;99478.03;5026255;28;20265;-72
2023/01/15 00:22:04;;;;;;;3.90;0.63;;;;;;;7.25;100.00;99481.41;5026065;28;20214;-71
2023/01/15 00:29:57;;;;;;;4.13;0.83;;;;;;;7.20;100.00;99492.34;5019171;28;20195;-72
2023/01/15 00:32:26;;;;;;;2.27;0.90;;;;;;;7.13;100.00;99488.88;5022418;28;20202;-72
2023/01/15 00:34:53;;;;;;;4.07;0.90;;;;;;;7.10;100.00;99488.84;5020837;28;20194;-72
2023/01/15 00:37:18;;;;;;;3.00;1.10;;;;;;;7.09;100.00;99496.47;5022229;28;20582;-72
2023/01/15 00:39:44;;;;;;;2.40;0.87;;;;;;;7.09;100.00;99501.56;5021361;28;20195;-72
2023/01/15 00:42:12;;;;;;;4.47;0.80;;;;;;;7.05;100.00;99507.47;5021470;28;20207;-72
2023/01/15 00:44:38;;;;;;;3.40;0.83;;;;;;;7.02;100.00;99505.75;5023129;28;20201;-72
2023/01/15 00:47:05;;;;;;;2.00;0.90;;;;;;;7.00;100.00;99498.94;5007767;28;20191;-71
2023/01/15 00:49:31;;;;;;;2.67;1.07;;;;;;;6.96;100.00;99507.34;5020807;28;20293;-72
2023/01/15 00:51:56;;;;;;;3.03;0.67;;;;;;;6.94;100.00;99499.69;5017917;28;20349;-71
2023/01/15 00:54:22;;;;;;;1.90;0.70;;;;;;;6.95;100.00;99503.09;5021340;28;20189;-72
2023/01/15 00:56:47;;;;;;;5.03;0.60;;;;;;;6.95;100.00;99498.84;5015228;28;20748;-71
2023/01/15 00:59:13;;;;;;;2.67;0.60;;;;;;;6.93;100.00;99508.16;5020211;28;20194;-72
2023/01/15 01:01:39;;;;;;;2.70;0.60;;;;;;;6.91;100.00;99514.06;5017127;28;20280;-71
2023/01/15 01:04:05;;;;;;;2.70;0.60;;;;;;;6.87;100.00;99513.16;5020977;28;20190;-72
2023/01/15 01:06:30;;;;;;;3.07;0.80;;;;;;;6.85;100.00;99519.06;5010995;28;20205;-72
2023/01/15 01:08:56;;;;;;;1.77;0.53;;;;;;;6.83;100.00;99516.53;5021128;28;20213;-71
2023/01/15 01:11:25;;;;;;;1.53;0.83;;;;;;;6.83;100.00;99523.28;5020055;28;20335;-72
2023/01/15 01:13:53;;;;;;;3.00;0.90;;;;;;;6.81;100.00;99522.44;5004873;28;20202;-71
2023/01/15 01:16:32;;;;;;;2.47;0.60;;;;;;;6.82;100.00;99519.88;5022700;28;20201;-72
2023/01/15 01:19:00;;;;;;;2.10;0.70;;;;;;;6.80;100.00;99519.03;5014391;28;20206;-72
2023/01/15 01:21:26;;;;;;;2.83;0.80;;;;;;;6.79;100.00;99534.25;5022400;28;20233;-72
2023/01/15 01:23:52;;;;;;;2.50;0.80;;;;;;;6.77;100.00;99529.16;5021834;28;20252;-72
2023/01/15 01:26:17;;;;;;;2.17;0.70;;;;;;;6.77;100.00;99531.69;5010611;28;20652;-71
2023/01/15 01:28:48;;;;;;;2.83;0.87;;;;;;;6.76;100.00;99524.91;5019452;28;20186;-72
2023/01/15 01:31:13;;;;;;;2.67;0.77;;;;;;;6.75;100.00;99525.75;5026633;28;20301;-72
2023/01/15 01:33:39;;;;;;;3.00;0.70;;;;;;;6.74;100.00;99523.19;5003671;28;20985;-72
2023/01/15 01:36:05;;;;;;;2.60;1.07;;;;;;;6.73;100.00;99514.69;5022434;28;20659;-73
2023/01/15 01:38:30;;;;;;;2.03;0.70;;;;;;;6.74;100.00;99523.19;5021724;28;20190;-72
2023/01/15 01:40:56;;;;;;;2.33;0.83;;;;;;;6.73;100.00;99516.38;5003984;28;20767;-72
2023/01/15 01:43:27;;;;;;;3.43;0.83;;;;;;;6.74;100.00;99518.97;5026058;28;20319;-72
2023/01/15 01:45:52;;;;;;;2.03;1.00;;;;;;;6.79;100.00;99514.78;5023793;28;20194;-73
2023/01/15 01:48:23;;;;;;;2.37;1.00;;;;;;;6.78;100.00;99518.13;4986832;28;20199;-71
2023/01/15 01:50:53;;;;;;;3.63;0.90;;;;;;;6.78;100.00;99523.22;5004722;28;20202;-72
2023/01/15 01:53:21;;;;;;;3.80;1.33;;;;;;;6.79;100.00;99524.09;5022053;28;20277;-72
2023/01/15 01:55:49;;;;;;;5.83;1.33;;;;;;;6.79;100.00;99522.41;5024905;28;20656;-72
2023/01/15 01:58:16;;;;;;;7.73;1.70;;;;;;;6.78;100.00;99519.84;5010598;28;20684;-72
2023/01/15 02:00:46;;;;;;;2.87;0.90;;;;;;;6.77;100.00;99530.84;5029297;28;20225;-71
2023/01/15 02:03:16;;;;;;;2.00;1.03;;;;;;;6.76;100.00;99529.13;5011376;28;20205;-71
2023/01/15 02:05:51;;;;;;;2.67;1.20;;;;;;;6.75;100.00;99513.03;5029144;28;20663;-73
2023/01/15 02:08:16;;;;;;;6.00;1.43;;;;;;;6.76;100.00;99519.81;5016153;28;20197;-73
2023/01/15 02:10:51;;;;;;;5.63;1.63;;;;;;;6.75;100.00;99518.13;5021796;28;20210;-71
2023/01/15 02:13:30;;;;;;;3.27;1.30;;;;;;;6.75;100.00;99514.69;5012253;28;20292;-71
2023/01/15 02:16:04;;;;;;;3.87;1.13;;;;;;;6.74;100.00;99506.25;5025892;28;20273;-72
2023/01/15 02:18:40;;;;;;;5.63;1.30;;;;;;;6.74;100.00;99493.53;5027849;28;20252;-71
2023/01/15 02:21:40;;;;;;;4.90;1.30;;;;;;;6.73;100.00;99496.88;5025655;28;20226;-71
2023/01/15 02:24:30;;;;;;;5.77;1.27;;;;;;;6.72;100.00;99499.44;4998987;28;20188;-71
2023/01/15 02:27:06;;;;;;;2.07;1.10;;;;;;;6.72;100.00;99501.97;5022103;28;20672;-72
2023/01/15 02:29:54;;;;;;;5.77;1.53;;;;;;;6.70;100.00;99499.41;5007648;28;20194;-71
2023/01/15 02:33:05;;;;;;;2.57;1.10;;;;;;;6.71;100.00;99512.94;5020758;28;20754;-72
2023/01/15 02:35:38;;;;;;;4.73;1.50;;;;;;;6.74;100.00;99520.63;5005416;28;20213;-72
2023/01/15 02:38:13;;;;;;;7.10;1.37;;;;;;;6.73;100.00;99514.69;5004866;28;20182;-72
2023/01/15 02:40:42;;;;;;;3.17;1.10;;;;;;;6.73;100.00;99506.22;5028241;28;20593;-72
2023/01/15 02:43:09;;;;;;;7.73;1.77;;;;;;;6.71;100.00;99521.44;5014046;28;20599;-72
2023/01/15 02:45:39;;;;;;;5.63;1.50;;;;;;;6.72;100.00;99522.31;5008088;28;20574;-71
2023/01/15 02:48:15;;;;;;;5.37;1.20;;;;;;;6.70;100.00;99514.66;5006179;28;20713;-72
2023/01/15 02:50:49;;;;;;;7.00;1.53;;;;;;;6.69;100.00;99530.75;5011143;28;20198;-71
2023/01/15 02:53:20;;;;;;;7.23;1.30;;;;;;;6.69;100.00;99515.50;5011452;28;20584;-72
2023/01/15 02:55:50;;;;;;;7.23;1.13;;;;;;;6.71;100.00;99497.69;5017925;28;20233;-72
2023/01/15 02:58:29;;;;;;;4.43;1.20;;;;;;;6.70;100.00;99491.78;5013674;28;20186;-73
2023/01/15 03:01:01;;;;;;;4.30;1.37;;;;;;;6.69;100.00;99500.25;5030703;28;20638;-72
2023/01/15 03:03:47;;;;;;;6.70;1.73;;;;;;;6.71;100.00;99508.72;5021088;28;20598;-72
2023/01/15 03:06:16;;;;;;;8.70;1.47;;;;;;;6.71;100.00;99512.94;5027231;28;20218;-72
2023/01/15 03:08:43;;;;;;;4.20;0.90;;;;;;;6.71;100.00;99512.94;5009280;28;20664;-72
2023/01/15 03:11:13;;;;;;;6.67;1.30;;;;;;;6.71;100.00;99518.91;5014828;28;20277;-73
2023/01/15 03:13:52;;;;;;;6.27;1.67;;;;;;;6.74;100.00;99515.53;5003205;28;20271;-72
2023/01/15 03:16:33;;;;;;;4.10;0.90;;;;;;;6.75;100.00;99518.13;5020258;28;20195;-72
2023/01/15 03:19:17;;;;;;;5.10;1.70;;;;;;;6.73;100.00;99517.22;5023638;28;20195;-72
2023/01/15 03:22:05;;;;;;;5.37;1.30;;;;;;;6.70;100.00;99514.66;5018658;28;20221;-73
2023/01/15 03:24:36;;;;;;;3.53;1.50;;;;;;;6.71;100.00;99518.03;5021994;28;20210;-72
2023/01/15 03:27:02;;;;;;;6.87;1.57;;;;;;;6.71;100.00;99520.59;5007069;28;20337;-72
2023/01/15 03:29:36;;;;;;;6.90;1.30;;;;;;;6.75;100.00;99507.94;5011501;28;20206;-72
2023/01/15 03:32:03;;;;;;;4.77;1.20;;;;;;;6.77;100.00;99520.69;5011117;28;20217;-72
2023/01/15 03:34:41;;;;;;;7.60;1.17;;;;;;;6.75;100.00;99523.19;5012792;28;20195;-72
2023/01/15 03:37:07;;;;;;;5.77;1.57;;;;;;;6.74;100.00;99521.50;5020541;28;20201;-71
2023/01/15 03:39:33;;;;;;;8.50;1.07;;;;;;;6.72;100.00;99515.53;5003240;28;20344;-71
2023/01/15 03:42:13;;;;;;;5.47;1.17;;;;;;;6.70;100.00;99512.13;5027122;28;20517;-71
2023/01/15 03:45:00;;;;;;;7.60;1.93;;;;;;;6.67;100.00;99506.97;5007969;28;20440;-71
2023/01/15 03:47:41;;;;;;;4.30;1.03;;;;;;;6.66;100.00;99514.59;5004778;28;20198;-72
2023/01/15 03:50:26;;;;;;;6.33;1.20;;;;;;;6.64;100.00;99508.63;5028049;28;20190;-72
2023/01/15 03:53:08;;;;;;;9.37;1.77;;;;;;;6.63;100.00;99515.41;5007321;28;20311;-72
2023/01/15 03:55:48;;;;;;;6.90;1.10;;;;;;;6.61;100.00;99512.00;5006964;28;20577;-71
2023/01/15 03:58:20;;;;;;;7.23;1.50;;;;;;;6.60;100.00;99506.88;5024027;28;20205;-71
2023/01/15 04:00:52;;;;;;;7.90;1.73;;;;;;;6.55;100.00;99508.50;5022503;28;20187;-71
2023/01/15 04:03:22;;;;;;;9.77;1.90;;;;;;;6.52;100.00;99501.69;5011378;28;20198;-72
2023/01/15 04:05:49;;;;;;;6.93;1.27;;;;;;;6.50;100.00;99503.34;5017593;28;20198;-72
2023/01/15 04:08:17;;;;;;;11.13;1.53;;;;;;;6.50;100.00;99497.44;5011496;28;20285;-71
2023/01/15 04:10:56;;;;;;;5.67;1.90;;;;;;;6.53;100.00;99500.84;5008598;28;20187;-71
2023/01/15 04:13:25;;;;;;;9.57;2.13;;;;;;;6.53;100.00;99489.81;5008689;28;20531;-71
2023/01/15 04:15:52;;;;;;;10.60;2.60;;;;;;;6.49;100.00;99488.94;5010369;28;20186;-70
2023/01/15 04:18:19;;;;;;;9.53;1.50;;;;;;;6.50;100.00;99487.25;4997757;28;20248;-70
2023/01/15 04:20:45;;;;;;;9.20;1.40;;;;;;;6.49;100.00;99486.41;5025338;28;20278;-71
2023/01/15 04:23:12;;;;;;;4.63;1.20;;;;;;;6.45;100.00;99483.81;5027395;28;20973;-70
2023/01/15 04:25:39;;;;;;;6.23;1.93;;;;;;;6.48;100.00;99478.75;5030113;28;20196;-71
2023/01/15 04:28:05;;;;;;;9.23;1.47;;;;;;;6.46;100.00;99482.97;5026729;28;20689;-71
2023/01/15 04:30:31;;;;;;;5.63;1.20;;;;;;;6.43;100.00;99491.41;5028372;28;20297;-71
2023/01/15 04:32:57;;;;;;;8.33;1.80;;;;;;;6.44;100.00;99467.69;5023516;28;20210;-70
2023/01/15 04:35:22;;;;;;;11.27;1.83;;;;;;;6.41;100.00;99471.88;5031115;28;20193;-70
2023/01/15 04:37:48;;;;;;;8.67;1.80;;;;;;;6.46;100.00;99468.56;5025921;28;20268;-70
2023/01/15 04:44:05;;;;;;;14.00;2.30;;;;;;;6.41;100.00;99465.09;5024670;28;20705;-71
2023/01/15 04:45:44;;;;;;;8.07;1.50;;;;;;;6.36;100.00;99476.88;5022969;28;20194;-71
2023/01/15 04:48:09;;;;;;;6.27;1.30;;;;;;;6.38;100.00;99475.25;5022570;28;20202;-72
2023/01/15 04:50:35;;;;;;;5.53;1.40;;;;;;;6.38;100.00;99474.38;5025491;28;20206;-72
2023/01/15 04:53:00;;;;;;;10.40;2.20;;;;;;;6.37;100.00;99482.84;5023371;28;20221;-72
2023/01/15 04:55:26;;;;;;;7.97;1.60;;;;;;;6.37;100.00;99483.72;5006609;28;20230;-73
2023/01/15 04:57:51;;;;;;;11.60;1.73;;;;;;;6.41;100.00;99482.88;5023644;28;20277;-72
2023/01/15 05:00:17;;;;;;;7.20;1.70;;;;;;;6.39;100.00;99486.25;5012877;28;20239;-71
2023/01/15 05:02:43;;;;;;;9.20;1.90;;;;;;;6.40;100.00;99478.63;5021922;28;20254;-72
2023/01/15 05:05:08;;;;;;;5.73;1.60;;;;;;;6.40;100.00;99483.72;5029071;28;20224;-71
2023/01/15 05:07:34;;;;;;;9.17;1.97;;;;;;;6.44;100.00;99470.22;5019221;28;20198;-71
2023/01/15 05:09:59;;;;;;;6.70;1.53;;;;;;;6.44;100.00;99459.22;5025322;28;20279;-72
2023/01/15 05:12:25;;;;;;;11.37;2.10;;;;;;;6.40;100.00;99465.94;5011544;28;20214;-73
2023/01/15 05:14:50;;;;;;;9.43;1.60;;;;;;;6.40;100.00;99468.47;5027351;28;20240;-72
2023/01/15 05:17:16;;;;;;;7.20;1.83;;;;;;;6.37;100.00;99463.38;5028836;28;20202;-72
2023/01/15 05:19:42;;;;;;;7.77;1.70;;;;;;;6.34;100.00;99467.53;5023934;28;20195;-72
2023/01/15 05:22:08;;;;;;;9.33;2.80;;;;;;;6.32;100.00;99462.47;5026686;28;20225;-73
2023/01/15 05:24:33;;;;;;;6.03;1.13;;;;;;;6.30;100.00;99443.78;5026700;28;20198;-73
2023/01/15 05:26:59;;;;;;;9.53;1.57;;;;;;;6.30;100.00;99453.06;5023317;28;20199;-72
2023/01/15 05:29:24;;;;;;;11.73;2.17;;;;;;;6.29;100.00;99453.91;5025536;28;20972;-72
2023/01/15 05:31:50;;;;;;;15.00;2.10;;;;;;;6.35;100.00;99459.94;5025305;28;20227;-72
2023/01/15 05:34:15;;;;;;;5.20;1.50;;;;;;;6.30;100.00;99466.66;5024327;28;20193;-73
2023/01/15 05:36:41;;;;;;;8.83;1.83;;;;;;;6.29;100.00;99456.44;5005554;28;20209;-72
2023/01/15 05:39:06;;;;;;;11.77;1.90;;;;;;;6.24;100.00;99460.63;5024966;28;20187;-72
2023/01/15 05:41:47;;;;;;;10.53;2.10;;;;;;;6.30;100.00;99464.09;5025644;28;20898;-71
2023/01/15 05:44:14;;;;;;;10.03;1.70;;;;;;;6.24;100.00;99453.88;5025049;28;20661;-72
2023/01/15 05:46:42;;;;;;;11.17;1.93;;;;;;;6.25;100.00;99440.31;5021872;28;20201;-72
2023/01/15 05:49:10;;;;;;;11.27;2.23;;;;;;;6.27;100.00;99445.44;5024566;28;20237;-72
2023/01/15 05:51:37;;;;;;;11.93;1.87;;;;;;;6.26;100.00;99466.59;5019640;28;20224;-72
2023/01/15 05:54:05;;;;;;;7.40;1.60;;;;;;;6.23;100.00;99454.69;5028411;28;20187;-72
2023/01/15 05:56:33;;;;;;;10.30;1.70;;;;;;;6.21;100.00;99452.97;5026381;28;20260;-71
2023/01/15 05:58:58;;;;;;;8.50;1.83;;;;;;;6.18;100.00;99458.00;5023807;28;20257;-72
2023/01/15 06:01:24;;;;;;;6.90;1.97;;;;;;;6.19;100.00;99452.09;5023205;28;20222;-72
2023/01/15 06:03:49;;;;;;;8.90;2.27;;;;;;;6.14;100.00;99456.25;5026556;28;20221;-71
2023/01/15 06:06:17;;;;;;;7.87;2.27;;;;;;;6.12;100.00;99447.75;5026374;28;20284;-71
2023/01/15 06:08:42;;;;;;;8.53;2.20;;;;;;;6.10;100.00;99460.44;5029344;28;20236;-71
2023/01/15 06:11:09;;;;;;;8.33;1.83;;;;;;;6.12;100.00;99473.16;5026671;28;20579;-71
2023/01/15 06:13:36;;;;;;;6.67;1.80;;;;;;;6.08;100.00;99469.72;5023928;28;20196;-71
2023/01/15 06:16:02;;;;;;;7.53;1.87;;;;;;;6.09;100.00;99458.75;5025893;28;20281;-71
2023/01/15 06:18:27;;;;;;;8.40;1.80;;;;;;;6.09;100.00;99463.81;5025406;28;20201;-71
2023/01/15 06:20:52;;;;;;;9.13;2.10;;;;;;;6.08;100.00;99482.41;5022655;28;20652;-72
2023/01/15 06:23:18;;;;;;;8.03;2.30;;;;;;;6.09;100.00;99473.97;5020656;28;20221;-72
2023/01/15 06:25:44;;;;;;;8.27;1.80;;;;;;;6.10;100.00;99464.66;5022001;28;20279;-72
2023/01/15 06:28:09;;;;;;;7.57;1.63;;;;;;;6.08;100.00;99473.94;5006637;28;20278;-72
2023/01/15 06:30:37;;;;;;;10.83;2.00;;;;;;;6.06;100.00;99483.22;5025236;28;20778;-72
2023/01/15 06:33:03;;;;;;;8.03;2.10;;;;;;;6.02;100.00;99477.25;5022704;28;20216;-72
2023/01/15 06:35:28;;;;;;;7.30;1.83;;;;;;;5.99;100.00;99472.09;5027782;28;20187;-72
2023/01/15 06:37:54;;;;;;;9.30;1.87;;;;;;;6.00;100.00;99461.13;5019070;28;20619;-72
2023/01/15 06:40:20;;;;;;;9.10;1.77;;;;;;;5.96;100.00;99468.69;5024016;28;20201;-72
2023/01/15 06:48:21;;;;;;;7.50;1.73;;;;;;;5.97;100.00;99457.69;5025342;28;20199;-71
2023/01/15 06:50:46;;;;;;;7.10;2.00;;;;;;;5.95;100.00;99459.34;5026240;28;20671;-71
2023/01/15 06:53:12;;;;;;;10.50;1.90;;;;;;;5.96;100.00;99469.53;5025106;28;20222;-71
2023/01/15 06:55:38;;;;;;;9.07;2.57;;;;;;;5.94;100.00;99455.13;5027937;28;20664;-72
2023/01/15 06:58:04;;;;;;;8.97;1.93;;;;;;;5.94;100.00;99457.66;5022991;28;20290;-72
2023/01/15 07:00:29;;;;;;;9.70;2.20;;;;;;;5.95;100.00;99456.81;5032926;28;20305;-72
2023/01/15 07:02:55;;;;;;;7.40;2.23;;;;;;;5.97;100.00;99465.28;5023889;28;20222;-71
2023/01/15 07:05:20;;;;;;;6.63;2.20;;;;;;;6.00;100.00;99472.97;5010572;28;20846;-71
2023/01/15 07:07:45;;;;;;;6.43;1.83;;;;;;;5.92;100.00;99470.31;5023813;28;20248;-72
2023/01/15 07:10:11;;;;;;;5.47;1.67;;;;;;;5.91;100.00;99471.16;5025939;28;20195;-72
2023/01/15 07:12:37;;;;;;;7.57;2.37;;;;;;;5.96;100.00;99473.75;5026768;28;20268;-71
2023/01/15 07:15:02;;;;;;;6.47;2.43;;;;;;;5.98;100.00;99467.03;5024482;28;20733;-71
2023/01/15 07:17:28;;;;;;;5.23;2.30;;;;;;;5.90;100.00;99474.50;5023742;28;20562;-72
2023/01/15 07:19:53;;;;;;;8.27;2.03;;;;;;;5.92;100.00;99472.88;5030095;28;20209;-72
2023/01/15 07:22:19;;;;;;;6.10;2.00;;;;;;;5.92;100.00;99479.63;5008469;28;20261;-71
2023/01/15 07:24:44;;;;;;;10.60;2.30;;;;;;;5.85;100.00;99470.22;5031416;28;20197;-71
2023/01/15 07:27:09;;;;;;;9.33;2.30;;;;;;;5.89;100.00;99472.81;5025799;28;20207;-72
2023/01/15 07:29:35;;;;;;;4.10;1.83;;;;;;;5.89;100.00;99464.34;5028214;28;20224;-71
2023/01/15 07:32:00;;;;;;;6.43;2.33;;;;;;;5.85;100.00;99481.19;5027876;28;20206;-71
2023/01/15 07:34:26;;;;;;;10.27;2.47;;;;;;;5.87;100.00;99477.03;5013124;28;20202;-72
2023/01/15 07:36:51;;;;;;;6.23;2.10;;;;;;;5.86;100.00;99475.31;5029678;28;20565;-72
2023/01/15 07:39:17;;;;;;;12.57;2.53;;;;;;;5.83;100.00;99472.72;5027706;28;20222;-71
2023/01/15 07:50:05;;;;;;;7.30;2.40;;;;;;;5.85;100.00;99490.53;5028059;28;20240;-72
2023/01/15 07:52:30;;;;;;;8.27;2.50;;;;;;;5.85;100.00;99485.44;5027931;28;20222;-73
2023/01/15 07:54:56;;;;;;;8.70;2.20;;;;;;;5.87;100.00;99491.38;5028004;28;20267;-73
2023/01/15 07:57:22;;;;;;;6.73;2.47;;;;;;;5.87;100.00;99492.25;5026995;28;20224;-72
2023/01/15 07:59:48;;;;;;;6.07;2.37;;;;;;;5.92;100.00;99498.25;5021869;28;20259;-73
2023/01/15 08:02:14;;;;;;;9.10;2.47;;;;;;;5.93;100.00;99486.41;5024259;28;20766;-73
2023/01/15 08:04:39;;;;;;;7.83;2.23;;;;;;;5.98;100.00;99489.91;5022566;28;20281;-73
2023/01/15 08:07:05;;;;;;;9.30;2.70;;;;;;;5.99;100.00;99484.81;5026537;28;20195;-73
2023/01/15 08:09:31;;;;;;;12.80;2.77;;;;;;;6.02;100.00;99479.78;5027158;28;20552;-73
2023/01/15 08:17:36;;;;;;;10.47;2.57;;;;;;;6.18;100.00;99478.34;5024011;28;20861;-73
2023/01/15 08:20:05;;;;;;;8.57;2.47;;;;;;;6.23;100.00;99472.50;5024403;28;20215;-72
2023/01/15 08:22:30;;;;;;;7.27;2.17;;;;;;;6.24;100.00;99481.81;5028155;28;20589;-72
2023/01/15 08:24:56;;;;;;;9.17;2.43;;;;;;;6.27;100.00;99476.75;5008630;28;20210;-72
2023/01/15 08:27:21;;;;;;;11.60;2.20;;;;;;;6.28;100.00;99475.94;5025746;28;20197;-72
2023/01/15 08:29:47;;;;;;;13.10;3.03;;;;;;;6.25;100.00;99480.97;5029786;28;20543;-72
2023/01/15 08:32:12;;;;;;;7.80;2.40;;;;;;;6.24;100.00;99486.91;5027359;28;20210;-71
2023/01/15 08:34:38;;;;;;;8.50;2.43;;;;;;;6.30;100.00;99494.59;5027245;28;20285;-72
2023/01/15 08:37:04;;;;;;;8.67;2.17;;;;;;;6.33;100.00;99488.72;5028012;28;20256;-72
2023/01/15 08:39:29;;;;;;;7.07;2.07;;;;;;;6.33;100.00;99491.25;5028454;28;20217;-72
2023/01/15 08:41:55;;;;;;;7.90;2.30;;;;;;;6.35;100.00;99492.16;5007749;28;20228;-72
2023/01/15 08:44:22;;;;;;;10.53;2.40;;;;;;;6.37;100.00;99495.53;5029236;28;20198;-72
2023/01/15 08:46:48;;;;;;;7.30;1.63;;;;;;;6.36;100.00;99489.59;5025643;28;20248;-72
2023/01/15 08:49:14;;;;;;;6.83;1.93;;;;;;;6.37;100.00;99483.72;5021712;28;20198;-73
2023/01/15 08:51:40;;;;;;;7.07;2.03;;;;;;;6.42;100.00;99492.25;5021324;28;20218;-72
2023/01/15 08:54:05;;;;;;;10.03;1.70;;;;;;;6.45;100.00;99492.25;5019662;28;20248;-72
2023/01/15 08:56:30;;;;;;;8.50;1.97;;;;;;;6.47;100.00;99474.50;5023328;28;20576;-72
2023/01/15 08:58:56;;;;;;;12.17;2.07;;;;;;;6.48;100.00;99483.81;5023374;28;20574;-73
2023/01/15 09:01:21;;;;;;;8.67;2.13;;;;;;;6.43;100.00;99481.25;5027483;28;20225;-73
2023/01/15 09:03:47;;;;;;;8.73;2.60;;;;;;;6.43;100.00;99472.75;5020374;28;20611;-72
2023/01/15 09:06:12;;;;;;;6.13;1.80;;;;;;;6.44;100.00;99472.78;5005528;28;20187;-74
2023/01/15 09:08:38;;;;;;;9.03;1.80;;;;;;;6.45;100.00;99486.34;5023556;28;20563;-72
2023/01/15 09:11:06;;;;;;;5.30;1.57;;;;;;;6.44;100.00;99479.56;5023032;28;20194;-72
2023/01/15 09:13:31;;;;;;;11.77;2.20;;;;;;;6.42;100.00;99478.66;5020284;28;20328;-72
2023/01/15 09:16:01;;;;;;;9.97;1.87;;;;;;;6.42;100.00;99479.53;5022143;28;20313;-72
2023/01/15 09:18:27;;;;;;;7.83;1.80;;;;;;;6.43;100.00;99482.91;5024958;28;20254;-72
2023/01/15 09:20:53;;;;;;;7.33;1.83;;;;;;;6.42;100.00;99479.53;5027329;28;20277;-72
2023/01/15 09:23:18;;;;;;;8.63;2.30;;;;;;;6.38;100.00;99472.69;5027427;28;20659;-73
2023/01/15 09:25:52;;;;;;;4.37;1.67;;;;;;;6.37;100.00;99472.66;5028390;28;20241;-73
2023/01/15 09:28:17;;;;;;;12.20;2.03;;;;;;;6.33;100.00;99471.78;5024177;28;20560;-73
2023/01/15 09:30:43;;;;;;;4.77;1.40;;;;;;;6.26;100.00;99469.97;5028848;28;20190;-73
2023/01/15 09:33:10;;;;;;;6.57;1.90;;;;;;;6.28;100.00;99464.91;5029320;28;20260;-72
2023/01/15 09:35:35;;;;;;;8.97;1.70;;;;;;;6.32;100.00;99477.72;5024948;28;20284;-73
2023/01/15 09:38:01;;;;;;;3.70;1.20;;;;;;;6.33;100.00;99489.56;5022760;28;20660;-73
2023/01/15 09:40:48;;;;;;;9.53;1.50;;;;;;;6.40;96.77;99488.81;5022034;28;20191;-73
2023/01/15 09:43:29;;;;;;;6.47;1.23;;;;;;;6.44;95.18;99484.66;5001308;28;20211;-73
2023/01/15 09:46:11;;;;;;;4.40;1.10;;;;;;;6.34;94.34;99496.34;5023247;28;20202;-73
2023/01/15 09:48:45;;;;;;;6.27;1.37;;;;;;;6.34;93.75;99498.91;5028646;28;20200;-73
2023/01/15 09:51:30;;;;;;;4.20;1.43;;;;;;;6.33;90.71;99483.63;5022787;28;20201;-72
2023/01/15 09:54:12;;;;;;;6.63;1.37;;;;;;;6.25;91.55;99483.53;5025058;28;20190;-72
2023/01/15 09:56:38;;;;;;;3.17;0.97;;;;;;;6.22;90.52;99497.88;5026705;28;20247;-73
2023/01/15 09:59:19;;;;;;;6.13;1.00;;;;;;;6.25;90.25;99491.16;5025002;28;20226;-73
2023/01/15 10:01:47;;;;;;;6.97;1.10;;;;;;;6.40;88.74;99485.44;5023405;28;20218;-74
2023/01/15 10:04:33;;;;;;;3.17;1.07;;;;;;;6.87;87.20;99497.91;5022131;28;20194;-72
2023/01/15 10:07:18;;;;;;;6.83;1.50;;;;;;;7.15;85.73;99484.69;5024128;28;20198;-73
2023/01/15 10:09:47;;;;;;;6.80;1.20;;;;;;;7.35;83.96;99483.19;5026705;28;20190;-74
2023/01/15 10:12:35;;;;;;;6.10;1.20;;;;;;;8.02;83.70;99484.63;5026592;28;20210;-72
2023/01/15 10:15:18;;;;;;;5.57;1.30;;;;;;;8.96;76.84;99484.31;5025065;28;20325;-72
2023/01/15 10:17:52;;;;;;;6.77;1.33;;;;;;;9.89;73.10;99484.50;5006992;28;20848;-73
2023/01/15 10:20:45;;;;;;;3.93;1.43;;;;;;;11.49;63.46;99486.59;5026412;28;20198;-73
2023/01/15 10:23:29;;;;;;;6.27;1.70;;;;;;;12.09;60.64;99493.00;5020922;28;20604;-72
2023/01/15 10:26:07;;;;;;;7.67;1.80;;;;;;;12.93;58.59;99481.84;4993584;28;20268;-73
2023/01/15 10:28:59;;;;;;;3.40;1.20;;;;;;;13.30;56.12;99484.84;5026536;28;20190;-73
2023/01/15 10:31:51;;;;;;;5.93;2.03;;;;;;;13.33;55.36;99490.78;5000224;28;21009;-73
2023/01/15 10:34:44;;;;;;;5.63;1.60;;;;;;;12.38;55.37;99489.31;5027808;28;20197;-72
2023/01/15 10:37:28;;;;;;;7.03;1.87;;;;;;;13.62;52.95;99477.53;5007960;28;20277;-72
2023/01/15 10:40:21;;;;;;;3.90;1.37;;;;;;;12.77;54.03;99486.31;5027354;28;20523;-73
2023/01/15 10:43:15;;;;;;;4.20;1.60;;;;;;;13.37;53.61;99461.59;5027943;28;20717;-72
2023/01/15 10:45:47;;;;;;;4.70;1.50;;;;;;;12.34;53.67;99473.94;5026388;28;20202;-73
2023/01/15 10:48:23;;;;;;;4.87;1.50;;;;;;;12.81;52.54;99471.72;5009898;28;20629;-72
2023/01/15 10:50:49;;;;;;;8.07;1.60;;;;;;;11.06;58.09;99477.44;5030964;28;20608;-73
2023/01/15 10:53:35;;;;;;;6.17;1.27;;;;;;;10.08;63.59;99484.53;5019689;28;20218;-72
2023/01/15 10:56:13;;;;;;;5.23;1.50;;;;;;;10.02;64.05;99478.53;5019727;28;20190;-72
2023/01/15 10:58:53;;;;;;;5.43;1.20;;;;;;;9.72;65.35;99478.56;5028938;28;20195;-72
2023/01/15 11:01:22;;;;;;;6.53;1.27;;;;;;;9.68;67.57;99484.50;5022316;28;20757;-73
2023/01/15 11:03:48;;;;;;;7.17;1.57;;;;;;;9.16;66.16;99475.88;5028969;28;20201;-72
2023/01/15 11:06:16;;;;;;;7.47;1.87;;;;;;;9.85;66.45;99475.97;5027016;28;20190;-72
2023/01/15 11:08:46;;;;;;;6.27;1.53;;;;;;;9.82;65.74;99457.25;5023682;28;20260;-72
2023/01/15 11:19:38;;;;;;;5.17;1.53;;;;;;;11.24;55.47;99451.72;5026664;28;20363;-73
2023/01/15 11:22:13;;;;;;;4.47;1.43;;;;;;;14.24;49.47;99429.31;5007773;28;20219;-72
2023/01/15 11:24:54;;;;;;;6.17;1.40;;;;;;;15.15;45.54;99415.44;5010140;28;20277;-73
2023/01/15 11:27:28;;;;;;;5.37;1.43;;;;;;;16.13;42.63;99413.91;5025298;28;20190;-73
2023/01/15 11:30:02;;;;;;;6.03;1.60;;;;;;;13.64;47.05;99388.31;5021345;28;20205;-72
2023/01/15 11:32:29;;;;;;;6.10;1.63;;;;;;;14.62;45.50;99406.25;5018062;28;20742;-73
2023/01/15 11:35:13;;;;;;;7.87;1.57;;;;;;;14.46;47.69;99412.56;5007994;28;20214;-73
2023/01/15 11:37:38;;;;;;;8.00;1.60;;;;;;;10.34;57.57;99433.34;5008383;28;20237;-73
2023/01/15 11:40:07;;;;;;;5.43;1.60;;;;;;;9.19;61.44;99435.03;5022770;28;20218;-73
2023/01/15 11:51:09;;;;;;;5.10;1.60;;;;;;;8.15;67.69;99443.91;5025779;28;20209;-72
2023/01/15 11:53:52;;;;;;;7.73;1.50;;;;;;;7.87;69.74;99439.50;5010493;28;20276;-72
2023/01/15 11:56:22;;;;;;;7.27;1.60;;;;;;;7.91;71.71;99431.03;5026069;28;20667;-71
2023/01/15 11:58:54;;;;;;;4.07;1.10;;;;;;;7.77;72.68;99427.53;5028749;28;20581;-71
2023/01/15 12:01:33;;;;;;;7.30;2.10;;;;;;;7.66;73.82;99439.34;5011984;28;20214;-70
2023/01/15 12:04:42;;;;;;;7.10;1.63;;;;;;;7.59;74.90;99432.47;5029361;28;20212;-72
2023/01/15 12:07:13;;;;;;;4.40;1.23;;;;;;;7.35;80.04;99444.13;5003935;28;20207;-72
2023/01/15 12:09:53;;;;;;;7.53;1.50;;;;;;;7.26;84.83;99485.63;5008541;28;22181;-71
2023/01/15 12:12:24;;;;;;;5.43;1.27;;;;;;;6.96;93.46;99500.56;5025446;28;20234;-72
2023/01/15 12:14:55;;;;;;;3.77;1.27;;;;;;;6.53;98.32;99489.81;5024801;28;20290;-71
2023/01/15 12:17:56;;;;;;;5.27;1.50;;;;;;;6.17;100.00;99495.25;5011311;28;20317;-71
2023/01/15 12:20:55;;;;;;;3.27;1.30;;;;;;;5.78;100.00;99498.81;5003206;28;20281;-72
2023/01/15 12:23:53;;;;;;;6.13;1.60;;;;;;;5.46;100.00;99493.22;5023170;28;20643;-72
2023/01/15 12:26:41;;;;;;;5.97;1.73;;;;;;;5.40;100.00;99466.88;5004794;28;20245;-72
2023/01/15 12:29:27;;;;;;;4.40;1.80;;;;;;;5.38;100.00;99458.38;5025463;28;20830;-76
2023/01/15 12:32:03;;;;;;;3.40;1.60;;;;;;;5.32;100.00;99455.72;5021068;28;20285;-73
2023/01/15 12:34:47;;;;;;;5.60;1.87;;;;;;;5.24;100.00;99463.22;5022207;28;20663;-73